Terminal Aerodrome Forecast
Issued by NWS Binghamton, NY

Home | Current Version | Previous Version | Text Only | Print | Product List | Glossary On
Versions: 1 2 3 4 5 6 7 8 9 10 11 12 13 14 15 16 17 18 19
269
FTUS41 KBGM 300544 RRA
TAFBGM
TAF
KBGM 300544Z 3006/3106 16007KT P6SM OVC003
     FM301200 17010KT P6SM OVC008
     FM301600 18012KT P6SM BKN015 OVC025
     FM301900 19013G22KT P6SM -SHRA BKN025 OVC050
     FM310000 18007KT P6SM BKN020 OVC035
     FM310300 18004KT P6SM OVC008=

USA.gov is the U.S. government's official web portal to all federal, state and local government web resources and services.